Time;durP1;ratioP1;P1;durP2;ratioP2;P2;SDS_P1;SDS_P2;PMS_P1;PMS_P2;Temp;Humidity;BMP_temperature;BMP_pressure;BME280_temperature;BME280_humidity;BME280_pressure;Samples;Min_cycle;Max_cycle;Signal;HPM_P1;HPM_P2
2021/12/17 00:01:34;;;;;;;14.23;9.40;;;;;;;9.43;61.51;100329.88;4312045;33;33567;-82
2021/12/17 00:04:14;;;;;;;14.10;9.52;;;;;;;8.32;64.88;100340.28;4329207;33;33796;-83
2021/12/17 00:06:47;;;;;;;13.88;9.70;;;;;;;9.53;60.96;100331.09;4329259;33;34722;-82
2021/12/17 00:09:15;;;;;;;13.68;9.40;;;;;;;9.46;60.68;100330.00;4329132;33;34304;-84
2021/12/17 00:11:43;;;;;;;14.38;10.00;;;;;;;9.05;61.66;100339.72;4314897;33;33973;-81
2021/12/17 00:14:13;;;;;;;14.52;9.60;;;;;;;9.57;60.17;100346.81;4315571;33;34613;-82
2021/12/17 00:16:41;;;;;;;14.65;10.48;;;;;;;9.26;61.09;100347.41;4328869;33;33979;-81
2021/12/17 00:19:41;;;;;;;12.48;8.40;;;;;;;8.83;61.79;100353.56;4328752;33;34063;-80
2021/12/17 00:52:36;;;;;;;11.50;6.90;;;;;;;8.01;61.63;100332.97;4328418;33;34245;-82
2021/12/17 00:55:05;;;;;;;11.15;7.62;;;;;;;8.29;60.13;100328.09;4328561;33;33575;-83
2021/12/17 00:57:41;;;;;;;11.90;7.00;;;;;;;8.55;59.75;100341.22;4328116;33;33706;-81
2021/12/17 01:00:13;;;;;;;11.70;8.38;;;;;;;8.21;60.40;100345.00;4326533;33;79360;-81
2021/12/17 01:02:41;;;;;;;11.68;7.65;;;;;;;8.42;59.49;100331.25;4331507;33;33834;-81
2021/12/17 01:05:13;;;;;;;12.93;7.97;;;;;;;8.34;59.99;100335.19;4318119;33;33362;-81
2021/12/17 01:07:44;;;;;;;11.98;7.12;;;;;;;8.40;59.79;100320.84;4317851;33;34956;-83
2021/12/17 01:10:28;;;;;;;11.98;7.05;;;;;;;8.04;59.95;100321.09;4331071;33;34036;-82
2021/12/17 01:12:56;;;;;;;11.05;6.68;;;;;;;7.74;61.10;100312.94;4331164;33;33986;-84
2021/12/17 01:15:26;;;;;;;11.27;6.97;;;;;;;7.51;61.63;100300.75;4330883;33;34304;-82
2021/12/17 01:18:04;;;;;;;11.80;6.70;;;;;;;8.22;59.60;100300.28;4330730;33;34660;-82
2021/12/17 01:20:54;;;;;;;12.05;7.40;;;;;;;7.62;61.14;100303.81;4319032;33;35104;-81
2021/12/17 01:42:47;;;;;;;11.35;7.30;;;;;;;7.99;59.56;100288.13;4266430;33;34048;-82
2021/12/17 01:45:15;;;;;;;9.30;5.90;;;;;;;8.01;59.08;100294.25;4304605;33;34724;-82
2021/12/17 01:47:43;;;;;;;10.95;6.25;;;;;;;7.11;61.63;100298.13;4317420;33;33216;-82
2021/12/17 01:56:18;;;;;;;11.07;5.93;;;;;;;8.06;57.84;100295.31;4331346;33;34074;-82
2021/12/17 02:01:34;;;;;;;8.25;5.22;;;;;;;8.66;55.64;100269.28;4325638;33;34923;-82
2021/12/17 02:04:05;;;;;;;9.32;5.18;;;;;;;8.67;55.36;100264.16;4331147;33;34369;-82
2021/12/17 02:06:36;;;;;;;8.93;5.25;;;;;;;7.88;57.15;100264.47;4331157;33;35172;-81
2021/12/17 02:09:22;;;;;;;9.38;4.82;;;;;;;8.62;54.71;100252.78;4331036;33;35167;-82
2021/12/17 02:20:44;;;;;;;8.55;5.22;;;;;;;8.05;56.27;100278.94;4331689;33;34680;-81
2021/12/17 02:31:41;;;;;;;10.38;5.90;;;;;;;6.87;59.34;100248.94;4330863;33;33494;-82
2021/12/17 02:36:51;;;;;;;10.68;5.62;;;;;;;7.48;57.62;100256.75;4323487;33;33989;-82
2021/12/17 02:47:39;;;;;;;12.77;6.07;;;;;;;7.46;57.24;100292.81;4319864;33;33998;-82
2021/12/17 02:50:09;;;;;;;10.52;5.85;;;;;;;7.79;56.32;100295.94;4317200;33;34869;-83
2021/12/17 02:52:38;;;;;;;7.85;5.10;;;;;;;7.45;57.63;100308.22;4330851;33;34117;-82
2021/12/17 02:55:06;;;;;;;10.73;5.93;;;;;;;8.12;55.18;100289.53;4330193;33;33485;-83
2021/12/17 02:57:35;;;;;;;11.85;6.45;;;;;;;7.87;55.98;100290.22;4317597;33;34711;-83
2021/12/17 03:00:07;;;;;;;10.00;6.32;;;;;;;7.29;57.50;100292.06;4330474;33;33749;-82
2021/12/17 03:02:38;;;;;;;10.27;6.43;;;;;;;8.34;55.13;100283.53;4317345;33;32270;-83
2021/12/17 03:05:07;;;;;;;12.68;6.68;;;;;;;8.09;55.76;100274.78;4330005;33;33799;-82
2021/12/17 03:07:39;;;;;;;14.55;6.45;;;;;;;8.86;53.33;100272.59;4331048;33;34046;-82
2021/12/17 03:10:09;;;;;;;11.10;6.57;;;;;;;8.86;53.28;100275.19;4316982;33;34125;-82
2021/12/17 03:12:50;;;;;;;9.57;5.53;;;;;;;8.62;54.66;100265.69;4330116;33;34114;-83
2021/12/17 03:23:39;;;;;;;12.13;7.82;;;;;;;8.70;54.65;100260.81;4329517;33;33441;-83
2021/12/17 03:26:17;;;;;;;13.75;9.27;;;;;;;8.36;56.63;100261.19;4312733;33;33534;-85
2021/12/17 03:28:48;;;;;;;13.80;8.80;;;;;;;8.79;55.76;100266.34;4312352;33;34143;-82
2021/12/17 03:31:17;;;;;;;14.05;9.18;;;;;;;8.63;56.32;100277.78;4329346;33;34342;-81
2021/12/17 03:33:48;;;;;;;15.57;9.55;;;;;;;8.40;57.58;100288.94;4317385;33;34559;-82
2021/12/17 03:36:18;;;;;;;17.45;12.00;;;;;;;7.35;61.37;100282.81;4330958;33;34618;-83
2021/12/17 03:38:49;;;;;;;18.27;11.02;;;;;;;7.41;61.69;100296.00;4316485;33;34242;-81
2021/12/17 03:43:51;;;;;;;18.33;12.88;;;;;;;8.37;59.37;100294.91;4312087;33;33389;-80
2021/12/17 03:46:20;;;;;;;22.35;12.57;;;;;;;8.00;60.46;100277.00;4330695;33;33872;-82
2021/12/17 03:48:52;;;;;;;19.10;12.93;;;;;;;8.32;59.21;100290.31;4317450;33;35174;-82
2021/12/17 03:51:20;;;;;;;20.10;12.00;;;;;;;8.34;58.88;100283.53;4330412;33;33978;-82
2021/12/17 03:53:51;;;;;;;21.33;13.10;;;;;;;7.50;62.32;100280.91;4317367;33;33501;-83
2021/12/17 03:56:19;;;;;;;19.30;13.10;;;;;;;7.69;61.91;100283.47;4330110;33;34757;-83
2021/12/17 03:58:49;;;;;;;19.10;12.63;;;;;;;6.93;64.44;100267.22;4317743;33;33926;-83
2021/12/17 04:01:19;;;;;;;22.27;13.82;;;;;;;7.98;60.73;100268.28;4322498;33;34130;-83
2021/12/17 04:03:47;;;;;;;19.95;12.70;;;;;;;7.61;61.42;100264.19;4317397;33;33367;-83
2021/12/17 04:06:15;;;;;;;18.80;11.90;;;;;;;7.49;61.91;100261.09;4316124;33;33130;-83
2021/12/17 04:08:44;;;;;;;17.90;11.93;;;;;;;7.22;62.69;100269.41;4317134;33;34124;-82
2021/12/17 04:11:18;;;;;;;19.83;12.55;;;;;;;7.77;60.98;100269.19;4329818;33;34328;-83
2021/12/17 04:13:53;;;;;;;19.15;13.23;;;;;;;7.84;60.16;100292.66;4330464;33;34120;-83
2021/12/17 04:16:25;;;;;;;19.60;12.52;;;;;;;7.97;59.97;100284.63;4316167;33;33682;-83
2021/12/17 04:18:54;;;;;;;17.67;12.25;;;;;;;8.23;59.09;100290.84;4328822;33;34148;-83
2021/12/17 04:21:23;;;;;;;18.98;13.13;;;;;;;7.79;60.38;100301.09;4316874;33;34321;-82
2021/12/17 04:23:52;;;;;;;18.90;11.43;;;;;;;8.37;58.66;100302.66;4317285;33;33814;-83
2021/12/17 04:26:21;;;;;;;17.58;11.40;;;;;;;8.87;56.91;100302.84;4329513;33;33965;-82
2021/12/17 04:28:52;;;;;;;19.48;12.30;;;;;;;8.57;57.09;100311.19;4330378;33;33756;-82
2021/12/17 04:31:25;;;;;;;19.40;11.90;;;;;;;8.56;57.57;100309.41;4329730;33;34790;-81
2021/12/17 04:33:53;;;;;;;21.98;12.95;;;;;;;7.70;59.75;100311.03;4329585;33;33922;-83
2021/12/17 04:36:27;;;;;;;17.73;12.15;;;;;;;7.53;60.75;100323.22;4328837;33;35214;-84
2021/12/17 04:38:56;;;;;;;19.20;11.12;;;;;;;8.43;57.73;100322.66;4316996;33;34076;-84
2021/12/17 04:44:12;;;;;;;18.80;11.82;;;;;;;8.85;55.99;100313.09;4330222;33;33630;-84
2021/12/17 04:46:47;;;;;;;20.02;12.23;;;;;;;8.81;56.22;100302.59;4329728;33;33965;-84
2021/12/17 04:57:37;;;;;;;16.58;11.05;;;;;;;7.59;60.59;100317.44;4329725;33;33623;-84
2021/12/17 05:00:19;;;;;;;19.02;12.52;;;;;;;7.61;60.02;100308.06;4316291;33;34259;-84
2021/12/17 05:02:51;;;;;;;18.37;12.37;;;;;;;7.42;60.86;100302.91;4316700;33;34330;-83
2021/12/17 05:05:27;;;;;;;16.35;11.43;;;;;;;7.93;59.55;100288.78;4329576;33;34511;-84
2021/12/17 05:07:59;;;;;;;16.70;11.80;;;;;;;7.16;62.08;100289.78;4329414;33;33674;-84
2021/12/17 05:21:25;;;;;;;15.88;10.40;;;;;;;7.23;61.51;100254.81;4326513;33;34102;-82
2021/12/17 05:23:53;;;;;;;18.80;11.60;;;;;;;7.46;61.18;100258.38;4329543;33;34097;-82
2021/12/17 05:26:22;;;;;;;15.88;11.30;;;;;;;6.97;62.58;100243.34;4328595;33;33864;-83
2021/12/17 05:28:51;;;;;;;16.90;11.00;;;;;;;6.66;63.64;100256.56;4328454;33;33732;-84
2021/12/17 05:31:21;;;;;;;19.65;11.40;;;;;;;7.03;62.64;100248.78;4328359;33;33642;-84
2021/12/17 05:33:51;;;;;;;17.20;11.10;;;;;;;7.03;62.37;100251.38;4329788;33;34401;-84
2021/12/17 05:36:20;;;;;;;18.58;12.80;;;;;;;7.40;61.51;100252.97;4329358;33;33737;-84
2021/12/17 05:38:48;;;;;;;16.62;11.15;;;;;;;6.82;62.86;100254.75;4329336;33;34725;-83
2021/12/17 05:41:16;;;;;;;18.75;11.55;;;;;;;7.34;61.21;100252.69;4328188;33;35159;-83
2021/12/17 05:43:53;;;;;;;16.50;10.70;;;;;;;7.30;61.39;100256.84;4328113;33;33914;-84
2021/12/17 05:46:36;;;;;;;14.77;10.50;;;;;;;6.67;63.66;100256.66;4329467;33;33305;-82
2021/12/17 05:49:05;;;;;;;13.85;10.43;;;;;;;7.72;60.18;100260.34;4330760;33;33658;-82
2021/12/17 05:51:33;;;;;;;16.77;11.88;;;;;;;7.65;60.08;100275.53;4317916;33;34045;-83
2021/12/17 05:54:00;;;;;;;17.75;11.50;;;;;;;7.57;60.05;100275.19;4330852;33;34844;-81
2021/12/17 05:56:28;;;;;;;17.70;11.02;;;;;;;8.14;58.38;100278.41;4317941;33;32766;-84
2021/12/17 05:58:56;;;;;;;18.77;10.98;;;;;;;7.02;61.91;100272.81;4330924;33;33877;-83
2021/12/17 06:01:24;;;;;;;17.27;10.90;;;;;;;7.26;61.27;100278.16;4331075;33;34148;-84
2021/12/17 06:03:52;;;;;;;17.23;9.90;;;;;;;7.25;61.31;100279.00;4331835;33;34815;-83
2021/12/17 06:06:30;;;;;;;15.45;9.90;;;;;;;6.81;61.82;100265.84;4331186;33;33858;-83
2021/12/17 06:09:02;;;;;;;14.00;9.15;;;;;;;6.34;63.33;100277.44;4317851;33;33456;-83
2021/12/17 06:11:29;;;;;;;15.93;10.88;;;;;;;7.22;61.21;100263.38;4317182;33;35020;-85
2021/12/17 06:13:56;;;;;;;14.93;9.80;;;;;;;6.68;62.34;100252.38;4331671;33;35098;-84
2021/12/17 06:16:27;;;;;;;15.48;10.13;;;;;;;7.12;61.37;100263.78;4330683;33;33337;-84
2021/12/17 06:18:55;;;;;;;15.63;10.18;;;;;;;6.49;63.64;100281.56;4318158;33;33406;-83
2021/12/17 06:21:23;;;;;;;16.77;10.10;;;;;;;6.80;62.49;100276.12;4317575;33;34047;-84
2021/12/17 06:23:50;;;;;;;14.95;9.27;;;;;;;6.52;63.53;100277.44;4331596;33;34378;-84
2021/12/17 06:26:19;;;;;;;15.32;10.68;;;;;;;6.91;62.05;100286.91;4331217;33;33376;-84
2021/12/17 06:28:50;;;;;;;16.92;9.60;;;;;;;6.66;62.97;100292.62;4331364;33;33625;-85
2021/12/17 06:31:20;;;;;;;16.60;9.68;;;;;;;6.49;63.41;100285.00;4318664;33;34849;-84
2021/12/17 06:33:47;;;;;;;18.08;11.40;;;;;;;7.50;59.86;100286.06;4331616;33;34278;-84
2021/12/17 06:36:15;;;;;;;17.12;9.98;;;;;;;7.47;59.95;100276.53;4330977;33;33620;-84
2021/12/17 06:38:43;;;;;;;16.08;9.82;;;;;;;7.31;60.41;100282.72;4331469;33;33908;-85
2021/12/17 06:41:11;;;;;;;14.57;8.40;;;;;;;7.11;60.66;100286.09;4318431;33;35128;-85
2021/12/17 06:43:43;;;;;;;13.07;9.52;;;;;;;6.68;61.72;100302.22;4330833;33;34569;-84
2021/12/17 06:46:35;;;;;;;16.33;10.07;;;;;;;7.09;60.73;100300.63;4318089;33;34578;-85
2021/12/17 07:06:11;;;;;;;14.27;9.65;;;;;;;6.52;62.02;100305.78;4316578;33;34114;-85
2021/12/17 07:17:23;;;;;;;18.27;10.38;;;;;;;6.79;61.48;100331.94;4330887;33;34799;-84
2021/12/17 07:28:10;;;;;;;16.75;9.60;;;;;;;7.52;59.37;100331.78;4331091;33;33539;-84
2021/12/17 07:32:07;;;;;;;15.57;9.77;;;;;;;8.07;57.84;100348.75;4320291;33;34650;-84
2021/12/17 07:33:41;;;;;;;17.27;10.63;;;;;;;6.86;61.18;100345.09;4330840;33;33165;-82
2021/12/17 07:36:14;;;;;;;16.15;10.40;;;;;;;7.54;58.52;100340.47;4316399;33;34777;-84
2021/12/17 07:38:48;;;;;;;18.83;11.40;;;;;;;7.39;59.66;100349.25;4316601;33;34147;-83
2021/12/17 07:41:19;;;;;;;16.73;10.13;;;;;;;7.99;57.40;100370.75;4316430;33;34649;-84
2021/12/17 07:43:53;;;;;;;15.98;10.15;;;;;;;6.33;63.07;100372.69;4318474;33;33614;-84
2021/12/17 07:46:21;;;;;;;16.05;10.10;;;;;;;6.70;61.81;100374.44;4330904;33;34255;-84
2021/12/17 07:48:49;;;;;;;15.93;10.15;;;;;;;7.64;58.86;100362.37;4330176;33;33856;-83
2021/12/17 07:51:17;;;;;;;17.48;10.38;;;;;;;7.43;59.68;100374.38;4317570;33;33306;-83
2021/12/17 07:53:46;;;;;;;16.40;10.10;;;;;;;7.13;60.50;100367.00;4331133;33;34636;-83
2021/12/17 07:56:16;;;;;;;17.33;10.10;;;;;;;7.77;57.83;100382.78;4317333;33;34020;-82
2021/12/17 07:58:44;;;;;;;18.95;9.50;;;;;;;7.25;59.84;100390.78;4317822;33;35003;-82
2021/12/17 08:01:13;;;;;;;14.13;9.63;;;;;;;7.15;60.07;100411.78;4317879;33;34398;-80
2021/12/17 08:03:42;;;;;;;13.75;9.30;;;;;;;7.39;59.52;100396.56;4317480;33;34743;-81
2021/12/17 08:06:10;;;;;;;15.10;8.60;;;;;;;7.31;59.36;100380.75;4317720;33;35044;-82
2021/12/17 08:08:38;;;;;;;14.13;8.30;;;;;;;7.69;58.29;100384.16;4330407;33;34770;-84
2021/12/17 08:11:07;;;;;;;15.25;8.55;;;;;;;7.48;58.76;100383.19;4330549;33;33160;-82
2021/12/17 08:13:36;;;;;;;13.75;9.68;;;;;;;7.97;57.92;100408.56;4330755;33;33782;-83
2021/12/17 08:29:51;;;;;;;14.52;8.48;;;;;;;7.96;57.16;100383.56;4319238;33;34285;-82
2021/12/17 08:32:19;;;;;;;16.15;8.43;;;;;;;8.10;57.14;100394.47;4330113;33;33412;-83
2021/12/17 08:34:47;;;;;;;11.80;8.00;;;;;;;7.76;57.88;100391.31;4305541;33;34047;-83
2021/12/17 08:37:14;;;;;;;16.20;9.50;;;;;;;7.71;58.53;100395.41;4330414;33;34097;-83
2021/12/17 08:39:43;;;;;;;13.45;8.07;;;;;;;7.86;57.76;100396.91;4330667;33;34631;-83
2021/12/17 08:42:12;;;;;;;13.40;8.55;;;;;;;8.20;56.94;100392.34;4317491;33;32977;-83
2021/12/17 08:44:39;;;;;;;13.90;8.10;;;;;;;8.25;56.88;100401.16;4316596;33;34107;-83
2021/12/17 08:47:10;;;;;;;12.80;8.50;;;;;;;8.62;55.55;100392.34;4330387;33;34167;-84
2021/12/17 08:49:40;;;;;;;16.77;9.30;;;;;;;7.13;59.56;100403.13;4330207;33;35101;-86
2021/12/17 08:52:08;;;;;;;16.87;8.50;;;;;;;7.38;59.04;100392.19;4329939;33;34280;-83
2021/12/17 08:54:36;;;;;;;15.65;8.40;;;;;;;7.57;58.79;100396.47;4330478;33;34465;-83
2021/12/17 08:57:04;;;;;;;15.48;8.57;;;;;;;6.95;60.78;100400.56;4316947;33;34161;-85
2021/12/17 08:59:32;;;;;;;16.80;11.50;;;;;;;7.77;58.31;100381.91;4330139;33;34042;-83
2021/12/17 09:02:03;;;;;;;14.73;8.60;;;;;;;7.88;58.19;100382.34;4330130;33;33777;-83
2021/12/17 09:04:31;;;;;;;13.50;8.23;;;;;;;8.45;56.04;100389.09;4316734;33;34657;-83
2021/12/17 09:07:00;;;;;;;10.77;6.70;;;;;;;8.10;57.38;100392.75;4329696;33;34391;-84
2021/12/17 09:09:27;;;;;;;14.50;7.90;;;;;;;8.34;55.93;100389.47;4330015;33;34380;-83
2021/12/17 09:11:55;;;;;;;15.35;7.35;;;;;;;7.89;57.38;100395.31;4329964;33;34523;-83
2021/12/17 09:14:23;;;;;;;12.65;7.10;;;;;;;8.33;56.26;100392.84;4330063;33;33843;-83
2021/12/17 09:16:51;;;;;;;14.57;7.45;;;;;;;8.44;55.68;100391.62;4329932;33;34143;-83
2021/12/17 09:19:19;;;;;;;15.48;7.87;;;;;;;7.90;57.37;100388.47;4329676;33;34132;-84
2021/12/17 09:21:48;;;;;;;13.20;7.57;;;;;;;8.43;56.25;100385.56;4330963;33;33517;-84
2021/12/17 09:24:17;;;;;;;12.55;7.55;;;;;;;8.20;56.81;100389.75;4331997;33;33862;-85
2021/12/17 09:26:53;;;;;;;14.43;8.27;;;;;;;8.25;56.63;100379.59;4331694;33;33285;-82
2021/12/17 09:29:21;;;;;;;12.88;7.72;;;;;;;8.74;55.30;100371.28;4318854;33;34464;-84
2021/12/17 09:31:49;;;;;;;15.60;7.15;;;;;;;8.57;55.68;100356.81;4318323;33;33584;-83
2021/12/17 09:34:16;;;;;;;18.48;8.95;;;;;;;8.75;55.48;100358.44;4318192;33;34528;-83
2021/12/17 09:36:44;;;;;;;12.90;6.55;;;;;;;8.32;56.22;100354.91;4330509;33;35174;-82
2021/12/17 09:39:12;;;;;;;12.27;6.65;;;;;;;8.54;55.93;100357.56;4331308;33;34058;-81
2021/12/17 09:41:43;;;;;;;12.82;6.90;;;;;;;9.77;52.63;100351.78;4331551;33;33578;-83
2021/12/17 09:44:14;;;;;;;12.98;7.12;;;;;;;9.35;53.82;100347.72;4331614;33;34435;-82
2021/12/17 09:46:44;;;;;;;12.50;6.22;;;;;;;9.21;53.10;100339.47;4326919;33;34188;-82
2021/12/17 09:49:17;;;;;;;9.77;6.28;;;;;;;9.29;52.45;100336.28;4318715;33;34296;-83
2021/12/17 09:51:46;;;;;;;12.00;6.95;;;;;;;8.26;55.69;100343.50;4331643;33;33351;-83
2021/12/17 09:54:14;;;;;;;15.43;6.43;;;;;;;8.25;55.84;100354.66;4331454;33;33245;-80
2021/12/17 09:56:42;;;;;;;10.52;6.40;;;;;;;8.39;55.76;100354.38;4325348;33;34163;-83
2021/12/17 09:59:13;;;;;;;11.75;6.15;;;;;;;7.95;56.85;100363.72;4303437;33;34029;-83
2021/12/17 10:01:42;;;;;;;14.25;6.32;;;;;;;8.40;55.78;100354.44;4316856;33;34501;-85
2021/12/17 10:04:41;;;;;;;9.95;5.50;;;;;;;8.75;54.74;100361.00;4303707;33;33231;-84
2021/12/17 10:07:21;;;;;;;9.30;5.25;;;;;;;8.60;54.49;100364.66;4310594;33;34925;-85
2021/12/17 10:10:01;;;;;;;9.77;6.12;;;;;;;8.11;56.25;100347.19;4314393;33;34330;-83
2021/12/17 10:12:34;;;;;;;13.85;5.40;;;;;;;8.66;55.07;100350.28;4318186;33;34400;-82
2021/12/17 10:15:07;;;;;;;10.05;4.95;;;;;;;8.09;55.81;100360.00;4317995;33;33210;-82
2021/12/17 10:17:37;;;;;;;9.13;4.93;;;;;;;8.92;54.16;100360.78;4331543;33;34763;-82
2021/12/17 10:20:07;;;;;;;10.73;4.78;;;;;;;8.49;55.59;100353.94;4331525;33;35055;-84
2021/12/17 10:22:34;;;;;;;12.05;5.03;;;;;;;8.15;56.16;100347.38;4330911;33;33509;-82
2021/12/17 10:25:08;;;;;;;8.38;4.90;;;;;;;8.64;55.06;100359.72;4331191;33;34417;-83
2021/12/17 10:27:38;;;;;;;11.95;4.78;;;;;;;8.45;55.50;100357.22;4331420;33;34210;-84
2021/12/17 10:30:13;;;;;;;12.10;4.12;;;;;;;8.45;54.84;100347.75;4330692;33;34037;-82
2021/12/17 10:32:44;;;;;;;10.65;5.15;;;;;;;8.74;54.15;100343.72;4316601;33;33633;-81
2021/12/17 10:35:14;;;;;;;11.70;4.65;;;;;;;7.83;56.68;100347.69;4322772;33;35315;-83
2021/12/17 10:37:57;;;;;;;10.38;4.50;;;;;;;8.45;55.01;100337.44;4331296;33;34017;-83
2021/12/17 10:40:49;;;;;;;11.93;4.10;;;;;;;8.04;55.90;100322.78;4331294;33;34933;-83
2021/12/17 10:43:28;;;;;;;9.10;4.20;;;;;;;8.97;53.45;100323.91;4331354;33;34633;-83
2021/12/17 10:49:13;;;;;;;11.15;4.93;;;;;;;8.72;53.65;100306.59;4305484;33;34966;-85
2021/12/17 10:54:14;;;;;;;12.07;5.05;;;;;;;8.27;55.38;100322.03;4331170;33;34457;-82
2021/12/17 10:56:52;;;;;;;15.30;5.15;;;;;;;8.78;53.91;100316.28;4331369;33;34703;-82
2021/12/17 10:59:23;;;;;;;11.27;5.03;;;;;;;8.74;54.24;100311.81;4330645;33;34874;-83
2021/12/17 11:01:55;;;;;;;11.43;4.87;;;;;;;8.67;53.86;100308.09;4317893;33;34210;-82
2021/12/17 11:04:34;;;;;;;11.02;5.05;;;;;;;8.68;54.22;100316.78;4331644;33;33654;-82
2021/12/17 11:07:02;;;;;;;11.10;5.00;;;;;;;8.66;54.02;100306.34;4317731;33;33550;-83
2021/12/17 11:09:57;;;;;;;9.30;5.00;;;;;;;8.45;54.73;100310.69;4331151;33;34051;-84
2021/12/17 11:12:33;;;;;;;12.27;5.12;;;;;;;8.64;54.13;100307.12;4330872;33;34785;-83
2021/12/17 11:15:10;;;;;;;8.98;4.72;;;;;;;8.53;54.09;100309.28;4330977;33;33588;-84
2021/12/17 11:17:39;;;;;;;8.52;4.37;;;;;;;8.94;53.26;100309.97;4331047;33;34040;-84
2021/12/17 11:20:11;;;;;;;10.40;4.75;;;;;;;8.46;54.44;100302.13;4330861;33;35175;-83
2021/12/17 11:22:41;;;;;;;11.48;4.75;;;;;;;8.76;53.47;100297.25;4317660;33;33967;-83
2021/12/17 11:25:09;;;;;;;16.42;9.55;;;;;;;9.16;52.84;100302.19;4317808;33;33471;-84
2021/12/17 11:27:37;;;;;;;9.70;5.50;;;;;;;9.24;51.82;100289.53;4331061;33;34134;-84
2021/12/17 11:30:07;;;;;;;10.65;4.95;;;;;;;8.84;53.65;100290.66;4317823;33;34191;-82
2021/12/17 11:32:35;;;;;;;10.95;5.28;;;;;;;9.84;50.75;100300.25;4330953;33;34391;-82
2021/12/17 11:35:04;;;;;;;9.52;4.28;;;;;;;9.12;52.23;100297.72;4330450;33;34679;-82
2021/12/17 11:37:31;;;;;;;12.25;4.68;;;;;;;9.31;51.83;100295.81;4317417;33;34560;-82
2021/12/17 11:40:02;;;;;;;8.40;4.20;;;;;;;9.04;52.16;100303.44;4317683;33;33729;-84
2021/12/17 11:42:39;;;;;;;10.57;4.87;;;;;;;8.64;53.62;100292.50;4317486;33;34184;-83
2021/12/17 11:47:57;;;;;;;8.75;4.78;;;;;;;9.00;52.60;100281.75;4330394;33;33761;-83
2021/12/17 11:50:25;;;;;;;11.35;4.85;;;;;;;9.09;52.35;100289.88;4316943;33;33911;-84
2021/12/17 11:52:54;;;;;;;9.45;4.43;;;;;;;9.06;52.28;100284.59;4330705;33;34914;-83
2021/12/17 11:55:33;;;;;;;11.88;4.30;;;;;;;9.54;51.24;100288.84;4317473;33;34349;-82
2021/12/17 11:58:05;;;;;;;11.32;4.15;;;;;;;8.46;54.04;100276.28;4317417;33;33621;-84
2021/12/17 12:00:41;;;;;;;9.73;4.30;;;;;;;9.21;52.06;100295.50;4317352;33;33772;-83
2021/12/17 12:03:12;;;;;;;7.72;4.10;;;;;;;9.43;51.07;100293.66;4330689;33;34094;-83
2021/12/17 12:05:42;;;;;;;9.50;4.35;;;;;;;8.91;52.56;100315.06;4330650;33;33387;-83
2021/12/17 12:08:40;;;;;;;9.13;3.70;;;;;;;8.81;52.70;100300.00;4317434;33;34389;-80
2021/12/17 12:11:23;;;;;;;10.65;3.87;;;;;;;8.44;53.39;100321.84;4322603;33;33801;-82
2021/12/17 12:13:52;;;;;;;9.13;4.12;;;;;;;8.79;52.10;100307.72;4323562;33;34107;-83
2021/12/17 12:16:22;;;;;;;8.68;3.58;;;;;;;9.48;50.88;100312.84;4330564;33;34340;-84
2021/12/17 12:18:51;;;;;;;10.30;3.67;;;;;;;9.20;51.44;100306.66;4317620;33;33859;-85
2021/12/17 12:21:20;;;;;;;8.75;4.37;;;;;;;9.26;51.37;100306.88;4330465;33;33912;-83
2021/12/17 12:23:50;;;;;;;13.45;4.22;;;;;;;9.07;52.17;100301.87;4317268;33;34298;-84
2021/12/17 12:26:23;;;;;;;12.10;3.78;;;;;;;9.30;51.57;100313.06;4330307;33;33808;-84
2021/12/17 12:28:56;;;;;;;15.63;4.72;;;;;;;10.38;48.75;100296.84;4315263;33;34703;-84
2021/12/17 12:31:24;;;;;;;9.77;3.67;;;;;;;9.71;50.56;100300.69;4330653;33;34469;-84
2021/12/17 12:34:00;;;;;;;13.25;3.80;;;;;;;9.26;52.10;100296.53;4330415;33;34266;-84
2021/12/17 12:36:54;;;;;;;12.35;4.47;;;;;;;9.66;50.79;100292.78;4330453;33;33784;-84
2021/12/17 12:39:23;;;;;;;7.93;4.00;;;;;;;9.00;52.38;100281.75;4309076;33;33985;-84
2021/12/17 12:42:19;;;;;;;9.68;4.65;;;;;;;9.97;50.22;100297.25;4330363;33;34072;-83
2021/12/17 12:44:49;;;;;;;11.43;4.60;;;;;;;9.38;51.46;100302.97;4330528;33;33875;-84
2021/12/17 12:47:19;;;;;;;6.78;3.60;;;;;;;8.68;53.17;100288.34;4330350;33;33465;-83
2021/12/17 12:50:02;;;;;;;11.48;4.20;;;;;;;8.67;53.54;100300.34;4330106;33;34957;-83
2021/12/17 12:52:30;;;;;;;9.27;4.43;;;;;;;9.41;51.43;100290.16;4330141;33;33884;-84
2021/12/17 12:55:06;;;;;;;9.00;4.35;;;;;;;9.26;51.32;100300.81;4329867;33;33929;-84
2021/12/17 12:57:35;;;;;;;9.65;4.00;;;;;;;9.45;51.39;100303.25;4331430;33;33389;-85
2021/12/17 13:00:10;;;;;;;12.23;3.85;;;;;;;9.28;51.52;100304.38;4331920;33;33777;-84
2021/12/17 13:02:39;;;;;;;10.13;4.28;;;;;;;9.23;51.41;100301.59;4331846;33;34049;-84
2021/12/17 13:05:07;;;;;;;8.65;3.58;;;;;;;8.96;52.57;100308.34;4332124;33;33873;-84
2021/12/17 13:07:36;;;;;;;10.52;4.37;;;;;;;8.65;52.98;100299.41;4332209;33;33450;-83
2021/12/17 13:10:28;;;;;;;10.52;4.25;;;;;;;8.79;52.79;100305.13;4318882;33;34718;-84
2021/12/17 13:13:00;;;;;;;10.05;4.62;;;;;;;9.41;51.57;100305.69;4318613;33;33612;-84
2021/12/17 13:21:04;;;;;;;11.93;3.75;;;;;;;9.38;50.92;100305.56;4314121;33;34393;-84
2021/12/17 13:23:46;;;;;;;10.45;4.12;;;;;;;8.80;52.55;100300.84;4316809;33;33787;-84
2021/12/17 13:26:16;;;;;;;12.35;4.45;;;;;;;8.98;51.96;100294.66;4305111;33;33910;-85
2021/12/17 13:28:45;;;;;;;10.10;5.22;;;;;;;9.70;50.21;100296.34;4316887;33;33461;-85
2021/12/17 13:31:12;;;;;;;12.32;4.47;;;;;;;9.16;51.33;100294.41;4317305;33;33977;-85
2021/12/17 13:33:39;;;;;;;8.63;3.40;;;;;;;9.17;51.34;100296.22;4303800;33;33654;-83
2021/12/17 13:36:13;;;;;;;7.70;3.78;;;;;;;9.53;50.81;100302.63;4320705;33;34056;-83
2021/12/17 13:38:42;;;;;;;8.45;3.90;;;;;;;9.24;50.73;100298.19;4329499;33;33311;-82
2021/12/17 13:41:10;;;;;;;12.35;3.92;;;;;;;9.25;50.74;100297.38;4330749;33;33828;-83
2021/12/17 13:43:39;;;;;;;11.55;4.05;;;;;;;9.52;50.31;100299.16;4317963;33;34001;-83
2021/12/17 13:46:07;;;;;;;10.13;4.37;;;;;;;8.74;52.43;100311.81;4331083;33;34167;-83
2021/12/17 13:48:35;;;;;;;11.40;4.43;;;;;;;8.93;51.78;100310.81;4317579;33;34531;-83
2021/12/17 13:51:02;;;;;;;8.20;4.10;;;;;;;9.66;49.88;100322.94;4317342;33;33745;-82
2021/12/17 13:53:30;;;;;;;9.25;4.12;;;;;;;9.13;51.04;100317.63;4317782;33;34201;-83
2021/12/17 13:56:17;;;;;;;10.43;3.45;;;;;;;9.06;51.13;100322.50;4319785;33;34548;-82
2021/12/17 13:58:45;;;;;;;11.30;4.22;;;;;;;8.75;51.73;100314.47;4330908;33;33280;-82
2021/12/17 14:01:20;;;;;;;14.30;4.30;;;;;;;8.69;52.03;100321.97;4330995;33;33937;-83
2021/12/17 14:03:48;;;;;;;10.50;4.45;;;;;;;9.37;50.20;100321.91;4331080;33;34176;-83
2021/12/17 14:06:21;;;;;;;10.07;3.60;;;;;;;8.96;51.18;100331.63;4331671;33;34986;-84
2021/12/17 14:08:48;;;;;;;7.28;3.17;;;;;;;8.91;51.27;100328.87;4330980;33;34435;-83
2021/12/17 14:11:25;;;;;;;7.47;3.90;;;;;;;8.96;50.93;100332.50;4317748;33;33758;-83
2021/12/17 14:14:23;;;;;;;8.80;3.53;;;;;;;8.15;52.71;100346.47;4320510;33;33963;-85
2021/12/17 14:16:58;;;;;;;9.23;3.90;;;;;;;8.80;51.32;100321.53;4318255;33;34030;-84
2021/12/17 14:19:36;;;;;;;7.57;3.55;;;;;;;9.24;50.35;100334.44;4331406;33;33608;-84
2021/12/17 14:22:27;;;;;;;8.63;3.65;;;;;;;8.32;52.34;100335.13;4331381;33;34597;-84
2021/12/17 14:24:56;;;;;;;11.77;3.62;;;;;;;10.03;48.28;100322.47;4312686;33;33409;-85
2021/12/17 14:27:44;;;;;;;7.10;3.33;;;;;;;9.82;48.28;100320.06;4331281;33;34728;-85
2021/12/17 14:30:13;;;;;;;7.57;3.78;;;;;;;9.38;49.39;100321.09;4331162;33;33251;-85
2021/12/17 14:32:49;;;;;;;9.85;3.87;;;;;;;9.18;50.06;100308.31;4331299;33;34460;-85
2021/12/17 14:35:39;;;;;;;7.87;3.03;;;;;;;9.59;49.20;100306.31;4330965;33;33965;-85
2021/12/17 14:38:07;;;;;;;8.88;4.60;;;;;;;9.84;48.46;100312.34;4331067;33;34249;-85
2021/12/17 14:40:43;;;;;;;10.48;3.90;;;;;;;10.22;47.15;100311.00;4331215;33;33789;-85
2021/12/17 14:43:43;;;;;;;8.98;3.80;;;;;;;9.02;50.58;100301.69;4331064;33;33954;-85
2021/12/17 14:48:56;;;;;;;7.60;3.28;;;;;;;10.21;47.88;100302.34;4331030;33;34624;-83
2021/12/17 15:02:52;;;;;;;9.93;4.45;;;;;;;9.25;49.72;100289.59;4284862;33;33731;-84